sensor_id;sensor_type;location;lat;lon;timestamp;temperature;humidity
16674;DHT22;8450;52.654;10.326;2022-11-04T07:03:35;8.70;99.90
16674;DHT22;8450;52.654;10.326;2022-11-04T07:06:05;8.60;99.90
16674;DHT22;8450;52.654;10.326;2022-11-04T07:08:31;8.60;99.90
16674;DHT22;8450;52.654;10.326;2022-11-04T07:56:58;8.60;99.90
16674;DHT22;8450;52.654;10.326;2022-11-04T07:59:24;8.70;99.90
16674;DHT22;8450;52.654;10.326;2022-11-04T08:01:49;8.60;99.90
16674;DHT22;8450;52.654;10.326;2022-11-04T08:04:15;8.70;99.90
16674;DHT22;8450;52.654;10.326;2022-11-04T08:06:40;8.70;99.90
16674;DHT22;8450;52.654;10.326;2022-11-04T08:09:07;8.70;99.90
16674;DHT22;8450;52.654;10.326;2022-11-04T08:11:32;8.70;99.90
16674;DHT22;8450;52.654;10.326;2022-11-04T08:14:02;8.70;99.90
16674;DHT22;8450;52.654;10.326;2022-11-04T08:16:27;8.80;99.90
16674;DHT22;8450;52.654;10.326;2022-11-04T08:18:53;8.80;99.90
16674;DHT22;8450;52.654;10.326;2022-11-04T08:21:20;8.80;99.90
16674;DHT22;8450;52.654;10.326;2022-11-04T08:23:46;8.80;99.90
16674;DHT22;8450;52.654;10.326;2022-11-04T08:26:15;8.80;99.90
16674;DHT22;8450;52.654;10.326;2022-11-04T08:28:41;8.80;99.90
16674;DHT22;8450;52.654;10.326;2022-11-04T08:31:16;8.90;99.90
16674;DHT22;8450;52.654;10.326;2022-11-04T08:33:42;8.90;99.90
16674;DHT22;8450;52.654;10.326;2022-11-04T08:36:15;8.90;99.90
16674;DHT22;8450;52.654;10.326;2022-11-04T08:38:41;8.90;99.90
16674;DHT22;8450;52.654;10.326;2022-11-04T08:41:08;9.00;99.90
16674;DHT22;8450;52.654;10.326;2022-11-04T08:43:34;9.00;99.90
16674;DHT22;8450;52.654;10.326;2022-11-04T08:46:00;9.00;99.90
16674;DHT22;8450;52.654;10.326;2022-11-04T08:48:27;9.00;99.90
16674;DHT22;8450;52.654;10.326;2022-11-04T08:50:55;9.10;99.90
16674;DHT22;8450;52.654;10.326;2022-11-04T08:53:23;9.10;99.90
16674;DHT22;8450;52.654;10.326;2022-11-04T08:55:49;9.10;99.90
16674;DHT22;8450;52.654;10.326;2022-11-04T08:58:15;9.10;99.90
16674;DHT22;8450;52.654;10.326;2022-11-04T09:00:41;9.20;99.90
16674;DHT22;8450;52.654;10.326;2022-11-04T09:03:07;9.20;99.90
16674;DHT22;8450;52.654;10.326;2022-11-04T09:05:35;9.20;99.90
16674;DHT22;8450;52.654;10.326;2022-11-04T09:08:00;9.20;99.90
16674;DHT22;8450;52.654;10.326;2022-11-04T09:10:26;9.20;99.90
16674;DHT22;8450;52.654;10.326;2022-11-04T09:12:52;9.30;99.90
16674;DHT22;8450;52.654;10.326;2022-11-04T09:15:18;9.30;99.90
16674;DHT22;8450;52.654;10.326;2022-11-04T09:17:44;9.30;99.90
16674;DHT22;8450;52.654;10.326;2022-11-04T09:20:09;9.40;99.90
16674;DHT22;8450;52.654;10.326;2022-11-04T09:22:36;9.40;99.90
16674;DHT22;8450;52.654;10.326;2022-11-04T09:25:02;9.40;99.90
16674;DHT22;8450;52.654;10.326;2022-11-04T09:27:28;9.50;99.90
16674;DHT22;8450;52.654;10.326;2022-11-04T09:29:54;9.50;99.90
16674;DHT22;8450;52.654;10.326;2022-11-04T09:32:19;9.50;99.90
16674;DHT22;8450;52.654;10.326;2022-11-04T09:34:45;9.60;99.90
16674;DHT22;8450;52.654;10.326;2022-11-04T09:37:10;9.60;99.90
16674;DHT22;8450;52.654;10.326;2022-11-04T09:39:36;9.60;99.90
16674;DHT22;8450;52.654;10.326;2022-11-04T09:44:55;9.70;99.90
16674;DHT22;8450;52.654;10.326;2022-11-04T09:47:24;9.70;99.90
16674;DHT22;8450;52.654;10.326;2022-11-04T09:49:52;9.70;99.90
16674;DHT22;8450;52.654;10.326;2022-11-04T09:52:30;9.80;99.90
16674;DHT22;8450;52.654;10.326;2022-11-04T09:55:19;9.80;99.90
16674;DHT22;8450;52.654;10.326;2022-11-04T09:57:52;9.80;99.90
16674;DHT22;8450;52.654;10.326;2022-11-04T10:00:18;9.90;99.90
16674;DHT22;8450;52.654;10.326;2022-11-04T10:06:19;9.90;99.90
16674;DHT22;8450;52.654;10.326;2022-11-04T10:08:59;9.90;99.90
16674;DHT22;8450;52.654;10.326;2022-11-04T10:14:57;10.00;99.90
16674;DHT22;8450;52.654;10.326;2022-11-04T10:22:58;10.00;99.90
16674;DHT22;8450;52.654;10.326;2022-11-04T10:28:16;10.00;99.90
16674;DHT22;8450;52.654;10.326;2022-11-04T10:30:43;10.00;99.90
16674;DHT22;8450;52.654;10.326;2022-11-04T10:33:10;10.00;99.90
16674;DHT22;8450;52.654;10.326;2022-11-04T10:35:48;10.00;99.90
16674;DHT22;8450;52.654;10.326;2022-11-04T10:38:21;10.00;99.90
16674;DHT22;8450;52.654;10.326;2022-11-04T10:40:51;10.00;99.90
16674;DHT22;8450;52.654;10.326;2022-11-04T10:43:27;10.00;99.90
16674;DHT22;8450;52.654;10.326;2022-11-04T10:48:58;10.10;99.90
16674;DHT22;8450;52.654;10.326;2022-11-04T10:51:25;10.10;99.90
16674;DHT22;8450;52.654;10.326;2022-11-04T10:53:55;10.10;99.90
16674;DHT22;8450;52.654;10.326;2022-11-04T10:56:37;10.10;99.90
16674;DHT22;8450;52.654;10.326;2022-11-04T10:59:26;10.10;99.90
16674;DHT22;8450;52.654;10.326;2022-11-04T11:01:54;10.20;99.90
16674;DHT22;8450;52.654;10.326;2022-11-04T11:04:26;10.20;99.90
16674;DHT22;8450;52.654;10.326;2022-11-04T11:06:54;10.20;99.90
16674;DHT22;8450;52.654;10.326;2022-11-04T11:09:22;10.30;99.90
16674;DHT22;8450;52.654;10.326;2022-11-04T11:16:52;10.30;99.90
16674;DHT22;8450;52.654;10.326;2022-11-04T11:19:20;10.40;99.90
16674;DHT22;8450;52.654;10.326;2022-11-04T11:21:51;10.40;99.90
16674;DHT22;8450;52.654;10.326;2022-11-04T11:24:26;10.40;99.90
16674;DHT22;8450;52.654;10.326;2022-11-04T11:26:57;10.40;99.90
16674;DHT22;8450;52.654;10.326;2022-11-04T11:29:27;10.50;99.90
16674;DHT22;8450;52.654;10.326;2022-11-04T11:31:55;10.50;99.90
16674;DHT22;8450;52.654;10.326;2022-11-04T11:34:31;10.50;99.90
16674;DHT22;8450;52.654;10.326;2022-11-04T11:36:58;10.50;99.90
16674;DHT22;8450;52.654;10.326;2022-11-04T11:39:31;10.50;99.90
16674;DHT22;8450;52.654;10.326;2022-11-04T11:42:05;10.50;99.90
16674;DHT22;8450;52.654;10.326;2022-11-04T11:44:36;10.50;99.90
16674;DHT22;8450;52.654;10.326;2022-11-04T11:47:35;10.50;99.90
16674;DHT22;8450;52.654;10.326;2022-11-04T11:50:17;10.50;99.90
16674;DHT22;8450;52.654;10.326;2022-11-04T11:52:44;10.50;99.90
16674;DHT22;8450;52.654;10.326;2022-11-04T11:55:36;10.50;99.90
16674;DHT22;8450;52.654;10.326;2022-11-04T11:58:25;10.50;99.90
16674;DHT22;8450;52.654;10.326;2022-11-04T12:00:58;10.50;99.90
16674;DHT22;8450;52.654;10.326;2022-11-04T12:03:29;10.50;99.90
16674;DHT22;8450;52.654;10.326;2022-11-04T12:11:30;10.50;99.90
16674;DHT22;8450;52.654;10.326;2022-11-04T12:14:03;10.50;99.90
16674;DHT22;8450;52.654;10.326;2022-11-04T12:17:06;10.50;99.90
16674;DHT22;8450;52.654;10.326;2022-11-04T12:27:43;10.50;99.90
16674;DHT22;8450;52.654;10.326;2022-11-04T12:30:21;10.50;99.90
16674;DHT22;8450;52.654;10.326;2022-11-04T12:35:49;10.50;99.90
16674;DHT22;8450;52.654;10.326;2022-11-04T12:41:58;10.50;99.90
16674;DHT22;8450;52.654;10.326;2022-11-04T12:44:38;10.40;99.90
16674;DHT22;8450;52.654;10.326;2022-11-04T12:47:28;10.40;99.90
16674;DHT22;8450;52.654;10.326;2022-11-04T12:52:57;10.50;99.90
16674;DHT22;8450;52.654;10.326;2022-11-04T12:55:48;10.50;99.90
16674;DHT22;8450;52.654;10.326;2022-11-04T13:04:05;10.50;99.90
16674;DHT22;8450;52.654;10.326;2022-11-04T13:06:44;10.50;99.90
16674;DHT22;8450;52.654;10.326;2022-11-04T13:09:19;10.50;99.90
16674;DHT22;8450;52.654;10.326;2022-11-04T13:14:28;10.50;99.90
16674;DHT22;8450;52.654;10.326;2022-11-04T13:17:02;10.60;99.90
16674;DHT22;8450;52.654;10.326;2022-11-04T13:19:34;10.60;99.90
16674;DHT22;8450;52.654;10.326;2022-11-04T13:22:06;10.60;99.90
16674;DHT22;8450;52.654;10.326;2022-11-04T13:24:36;10.60;99.90
16674;DHT22;8450;52.654;10.326;2022-11-04T13:27:12;10.60;99.90
16674;DHT22;8450;52.654;10.326;2022-11-04T13:29:39;10.60;99.90
16674;DHT22;8450;52.654;10.326;2022-11-04T13:37:36;10.70;99.90
16674;DHT22;8450;52.654;10.326;2022-11-04T13:40:17;10.70;99.90
16674;DHT22;8450;52.654;10.326;2022-11-04T13:45:50;10.70;99.90
16674;DHT22;8450;52.654;10.326;2022-11-04T13:48:20;10.70;99.90
16674;DHT22;8450;52.654;10.326;2022-11-04T13:51:08;10.80;99.90
16674;DHT22;8450;52.654;10.326;2022-11-04T13:58:55;10.90;99.90
16674;DHT22;8450;52.654;10.326;2022-11-04T14:04:00;10.90;99.90
16674;DHT22;8450;52.654;10.326;2022-11-04T14:09:32;10.90;99.90
16674;DHT22;8450;52.654;10.326;2022-11-04T14:14:33;10.90;99.90
16674;DHT22;8450;52.654;10.326;2022-11-04T14:16:59;10.90;99.90
16674;DHT22;8450;52.654;10.326;2022-11-04T14:22:20;10.90;99.90
16674;DHT22;8450;52.654;10.326;2022-11-04T14:25:16;10.90;99.90
16674;DHT22;8450;52.654;10.326;2022-11-04T14:27:39;10.90;99.90
16674;DHT22;8450;52.654;10.326;2022-11-04T14:30:06;10.90;99.90
16674;DHT22;8450;52.654;10.326;2022-11-04T14:32:55;10.90;99.90
16674;DHT22;8450;52.654;10.326;2022-11-04T14:35:23;10.90;99.90
16674;DHT22;8450;52.654;10.326;2022-11-04T14:37:52;10.90;99.90
16674;DHT22;8450;52.654;10.326;2022-11-04T14:40:25;10.90;99.90
16674;DHT22;8450;52.654;10.326;2022-11-04T14:42:55;10.90;99.90
16674;DHT22;8450;52.654;10.326;2022-11-04T14:45:24;10.80;99.90
16674;DHT22;8450;52.654;10.326;2022-11-04T14:47:55;10.80;99.90
16674;DHT22;8450;52.654;10.326;2022-11-04T14:50:26;10.80;99.90
16674;DHT22;8450;52.654;10.326;2022-11-04T14:52:59;10.80;99.90
16674;DHT22;8450;52.654;10.326;2022-11-04T14:55:30;10.80;99.90
16674;DHT22;8450;52.654;10.326;2022-11-04T14:58:12;10.80;99.90
16674;DHT22;8450;52.654;10.326;2022-11-04T15:03:16;10.80;99.90
16674;DHT22;8450;52.654;10.326;2022-11-04T15:05:59;10.70;99.90
16674;DHT22;8450;52.654;10.326;2022-11-04T15:08:36;10.70;99.90
16674;DHT22;8450;52.654;10.326;2022-11-04T15:11:18;10.70;99.90
